Time;durP1;ratioP1;P1;durP2;ratioP2;P2;SDS_P1;SDS_P2;PMS_P1;PMS_P2;Temp;Humidity;BMP_temperature;BMP_pressure;BME280_temperature;BME280_humidity;BME280_pressure;Samples;Min_cycle;Max_cycle;Signal;HPM_P1;HPM_P2
2023/05/20 00:00:58;;;;;;;12.02;3.95;;;14.30;99.90;;;;;;5028284;28;20496;-86
2023/05/20 00:03:23;;;;;;;10.50;4.57;;;14.40;99.90;;;;;;5028713;28;20476;-86
2023/05/20 00:05:49;;;;;;;7.22;3.88;;;14.30;99.90;;;;;;5028419;28;20025;-86
2023/05/20 00:08:14;;;;;;;7.38;4.53;;;14.20;99.90;;;;;;5028090;28;20033;-86
2023/05/20 00:10:40;;;;;;;7.88;4.55;;;14.20;99.90;;;;;;5028425;28;20036;-86
2023/05/20 00:13:06;;;;;;;9.13;4.45;;;14.20;99.90;;;;;;5029045;28;20037;-86
2023/05/20 00:15:32;;;;;;;9.48;4.25;;;14.20;99.90;;;;;;5028005;28;20381;-86
2023/05/20 00:18:00;;;;;;;9.10;4.10;;;14.20;99.90;;;;;;5028947;28;20104;-86
2023/05/20 00:20:25;;;;;;;8.35;4.18;;;14.20;99.90;;;;;;5031275;28;20029;-85
2023/05/20 00:22:51;;;;;;;11.57;4.47;;;14.10;99.90;;;;;;5031215;28;20064;-86
2023/05/20 00:25:16;;;;;;;7.57;4.15;;;14.10;99.90;;;;;;5032242;28;20022;-86
2023/05/20 00:27:42;;;;;;;6.78;4.32;;;14.10;99.90;;;;;;5031663;28;20032;-86
2023/05/20 00:30:08;;;;;;;10.13;4.72;;;14.00;99.90;;;;;;5031313;28;20021;-86
2023/05/20 00:32:34;;;;;;;12.75;4.65;;;14.00;99.90;;;;;;5031642;28;20030;-87
2023/05/20 00:35:00;;;;;;;12.50;4.68;;;13.90;99.90;;;;;;5031982;28;20025;-86
2023/05/20 00:37:26;;;;;;;13.85;5.07;;;13.90;99.90;;;;;;5031611;28;20033;-86
2023/05/20 00:39:52;;;;;;;8.35;4.50;;;14.00;99.90;;;;;;5031386;28;20025;-86
2023/05/20 00:42:26;;;;;;;8.45;4.53;;;14.00;99.90;;;;;;5030891;28;20538;-86
2023/05/20 00:44:52;;;;;;;7.80;4.60;;;13.90;99.90;;;;;;5031551;28;20056;-87
2023/05/20 00:47:20;;;;;;;11.30;4.97;;;13.90;99.90;;;;;;5031879;28;20096;-86
2023/05/20 00:49:47;;;;;;;10.43;4.60;;;13.90;99.90;;;;;;5030668;28;20052;-86
2023/05/20 00:52:13;;;;;;;11.63;4.85;;;14.00;99.90;;;;;;5031664;28;20056;-86
2023/05/20 00:54:40;;;;;;;15.20;5.07;;;13.80;99.90;;;;;;5031223;28;20025;-86
2023/05/20 00:57:06;;;;;;;6.47;4.55;;;13.80;99.90;;;;;;5030527;28;20488;-86
2023/05/20 00:59:34;;;;;;;6.78;4.75;;;13.80;99.90;;;;;;5031345;28;20025;-86
2023/05/20 01:02:00;;;;;;;8.73;4.70;;;14.10;99.90;;;;;;5031559;28;20068;-86
2023/05/20 01:04:26;;;;;;;11.68;4.78;;;13.70;99.90;;;;;;5030320;28;20175;-86
2023/05/20 01:06:51;;;;;;;8.65;4.70;;;14.70;99.90;;;;;;5031293;28;20124;-86
2023/05/20 01:09:17;;;;;;;12.63;5.05;;;13.80;99.90;;;;;;5031496;28;20468;-86
2023/05/20 01:11:54;;;;;;;8.85;5.10;;;13.90;99.90;;;;;;5030402;28;20082;-86
2023/05/20 01:14:23;;;;;;;10.77;5.15;;;13.70;99.90;;;;;;5031659;28;20021;-86
2023/05/20 01:16:50;;;;;;;7.25;4.90;;;13.80;99.90;;;;;;5030994;28;20496;-86
2023/05/20 01:19:34;;;;;;;5.25;4.75;;;13.70;99.90;;;;;;5030347;28;20029;-86
2023/05/20 01:22:04;;;;;;;9.95;4.63;;;13.60;99.90;;;;;;5031571;28;20022;-86
2023/05/20 01:24:30;;;;;;;9.23;4.53;;;13.70;99.90;;;;;;5030464;28;20108;-86
2023/05/20 01:26:57;;;;;;;12.00;5.05;;;13.60;99.90;;;;;;5030888;28;20150;-86
2023/05/20 01:29:23;;;;;;;8.35;4.85;;;13.70;99.90;;;;;;5031178;28;20581;-86
2023/05/20 01:31:50;;;;;;;11.23;4.55;;;13.70;99.90;;;;;;5028922;28;20038;-86
2023/05/20 01:34:16;;;;;;;6.22;5.15;;;13.70;99.90;;;;;;5031399;28;20022;-85
2023/05/20 01:36:44;;;;;;;9.88;4.72;;;13.80;99.90;;;;;;5030531;28;20026;-86
2023/05/20 01:39:11;;;;;;;13.18;4.68;;;13.60;99.90;;;;;;5030517;28;20029;-86
2023/05/20 01:41:37;;;;;;;9.30;4.90;;;13.70;99.90;;;;;;5030564;28;20048;-86
2023/05/20 01:44:02;;;;;;;11.57;5.00;;;13.80;99.90;;;;;;5030321;28;20421;-85
2023/05/20 01:46:34;;;;;;;10.45;4.82;;;13.80;99.90;;;;;;5029797;28;20048;-86
2023/05/20 01:49:00;;;;;;;9.57;5.03;;;13.70;99.90;;;;;;5030588;28;20032;-85
2023/05/20 01:51:26;;;;;;;7.53;5.20;;;13.70;99.90;;;;;;5030974;28;20406;-85
2023/05/20 01:53:53;;;;;;;10.32;5.07;;;13.70;99.90;;;;;;5029958;28;20049;-85
2023/05/20 01:56:18;;;;;;;12.82;5.00;;;13.70;99.90;;;;;;5030746;28;20113;-85
2023/05/20 01:58:44;;;;;;;7.25;4.72;;;13.60;99.90;;;;;;5030300;28;20053;-85
2023/05/20 02:01:09;;;;;;;6.20;5.15;;;13.60;99.90;;;;;;5030143;28;20097;-85
2023/05/20 02:03:35;;;;;;;9.98;4.68;;;13.70;99.90;;;;;;5030026;28;20029;-85
2023/05/20 02:06:01;;;;;;;7.22;4.78;;;13.70;99.90;;;;;;5030691;28;20071;-86
2023/05/20 02:08:26;;;;;;;13.43;5.05;;;13.70;99.90;;;;;;5029829;28;20028;-85
2023/05/20 02:10:52;;;;;;;17.30;5.85;;;13.70;99.90;;;;;;5030169;28;20686;-86
2023/05/20 02:13:17;;;;;;;16.40;5.75;;;13.70;99.90;;;;;;5030286;28;20044;-85
2023/05/20 02:15:43;;;;;;;7.05;5.47;;;13.70;99.90;;;;;;5029632;28;20055;-86
2023/05/20 02:18:11;;;;;;;11.50;5.05;;;13.60;99.90;;;;;;5030398;28;20567;-85
2023/05/20 02:20:36;;;;;;;11.48;5.60;;;13.60;99.90;;;;;;5029873;28;20040;-85
2023/05/20 02:23:04;;;;;;;8.50;5.35;;;13.60;99.90;;;;;;5029774;28;20030;-86
2023/05/20 02:25:30;;;;;;;10.55;4.93;;;13.50;99.90;;;;;;5030384;28;20026;-86
2023/05/20 02:27:56;;;;;;;7.43;5.25;;;13.50;99.90;;;;;;5029215;28;20026;-85
2023/05/20 02:30:21;;;;;;;10.70;5.65;;;13.40;99.90;;;;;;5030396;28;20037;-85
2023/05/20 02:32:47;;;;;;;10.15;5.15;;;13.40;99.90;;;;;;5029582;28;20045;-85
2023/05/20 02:35:12;;;;;;;6.53;5.13;;;13.40;99.90;;;;;;5029019;28;20112;-85
2023/05/20 02:37:38;;;;;;;12.23;6.22;;;13.30;99.90;;;;;;5029665;28;20507;-86
2023/05/20 02:40:05;;;;;;;14.85;7.10;;;13.30;99.90;;;;;;5030197;28;20048;-85
2023/05/20 02:42:31;;;;;;;10.82;5.68;;;13.10;99.90;;;;;;5028886;28;20037;-85
2023/05/20 02:44:57;;;;;;;13.32;5.80;;;13.20;99.90;;;;;;5029726;28;20045;-85
2023/05/20 02:47:24;;;;;;;8.55;5.68;;;13.10;99.90;;;;;;5029985;28;20059;-86
2023/05/20 02:49:49;;;;;;;7.30;5.78;;;13.10;99.90;;;;;;5028893;28;20074;-85
2023/05/20 02:52:15;;;;;;;7.55;5.60;;;13.20;99.90;;;;;;5029490;28;20513;-86
2023/05/20 02:54:40;;;;;;;13.48;6.15;;;13.30;99.90;;;;;;5029502;28;20017;-85
2023/05/20 02:57:06;;;;;;;7.70;5.40;;;13.20;99.90;;;;;;5028811;28;20027;-86
2023/05/20 02:59:31;;;;;;;14.75;5.82;;;13.30;99.90;;;;;;5029697;28;20105;-86
2023/05/20 03:01:57;;;;;;;11.90;5.95;;;13.20;99.90;;;;;;5030007;28;20389;-85
2023/05/20 03:04:24;;;;;;;10.95;6.13;;;13.20;99.90;;;;;;5028971;28;20021;-85
2023/05/20 03:06:50;;;;;;;16.55;5.90;;;13.20;99.90;;;;;;5029518;28;20426;-84
2023/05/20 03:09:18;;;;;;;8.95;5.85;;;13.10;99.90;;;;;;5029537;28;20013;-86
2023/05/20 03:11:44;;;;;;;10.77;6.68;;;13.00;99.90;;;;;;5028625;28;20037;-86
2023/05/20 03:14:10;;;;;;;9.75;6.00;;;13.10;99.90;;;;;;5029994;28;20032;-86
2023/05/20 03:16:35;;;;;;;12.48;6.20;;;13.10;99.90;;;;;;5029445;28;20104;-86
2023/05/20 03:19:01;;;;;;;11.43;5.32;;;13.10;99.90;;;;;;5028917;28;20030;-86
2023/05/20 03:21:27;;;;;;;6.68;5.32;;;13.70;99.90;;;;;;5029553;28;20523;-86
2023/05/20 03:23:52;;;;;;;7.57;5.72;;;13.30;99.90;;;;;;5029114;28;20029;-86
2023/05/20 03:26:18;;;;;;;14.70;6.10;;;13.30;99.90;;;;;;5028791;28;20026;-87
2023/05/20 03:28:43;;;;;;;8.95;5.13;;;13.30;99.90;;;;;;5029365;28;20106;-87
2023/05/20 03:31:09;;;;;;;10.52;6.30;;;13.20;99.90;;;;;;5028603;28;20017;-86
2023/05/20 03:33:34;;;;;;;9.35;4.95;;;13.20;99.90;;;;;;5028854;28;20397;-87
2023/05/20 03:36:00;;;;;;;12.93;5.55;;;13.10;99.90;;;;;;5029390;28;20078;-86
2023/05/20 03:38:26;;;;;;;8.63;5.47;;;12.90;99.90;;;;;;5028650;28;20048;-86
2023/05/20 03:40:52;;;;;;;10.85;5.68;;;12.90;99.90;;;;;;5029110;28;20078;-86
2023/05/20 03:43:17;;;;;;;13.38;5.97;;;12.90;99.90;;;;;;5029166;28;20036;-87
2023/05/20 03:45:43;;;;;;;10.70;5.28;;;12.80;99.90;;;;;;5027863;28;20049;-87
2023/05/20 03:48:08;;;;;;;7.43;5.43;;;12.80;99.90;;;;;;5029377;28;20029;-87
2023/05/20 03:50:34;;;;;;;10.27;5.75;;;12.80;99.90;;;;;;5028467;28;20022;-87
2023/05/20 03:52:59;;;;;;;15.43;6.88;;;12.80;99.90;;;;;;5028467;28;20037;-87
2023/05/20 03:55:25;;;;;;;12.18;5.75;;;12.70;99.90;;;;;;5031836;28;20361;-87
2023/05/20 03:57:50;;;;;;;9.15;6.13;;;12.70;99.90;;;;;;5032600;28;20030;-86
2023/05/20 04:00:17;;;;;;;8.63;5.72;;;12.50;99.90;;;;;;5031375;28;20116;-86
2023/05/20 04:02:43;;;;;;;15.02;6.07;;;12.50;99.90;;;;;;5032468;28;20030;-86
2023/05/20 04:05:09;;;;;;;13.82;6.05;;;12.60;99.90;;;;;;5032887;28;20419;-86
2023/05/20 04:07:35;;;;;;;5.90;5.22;;;12.50;99.90;;;;;;5031590;28;20499;-86
2023/05/20 04:10:00;;;;;;;9.68;5.68;;;12.60;99.90;;;;;;5032336;28;20029;-86
2023/05/20 04:12:29;;;;;;;9.85;5.63;;;12.80;99.90;;;;;;5032395;28;20090;-86
2023/05/20 04:15:02;;;;;;;10.77;5.22;;;12.70;99.90;;;;;;5031379;28;20376;-86
2023/05/20 04:17:31;;;;;;;7.55;5.40;;;12.80;99.90;;;;;;5134930;27;20027;-86
2023/05/20 04:19:58;;;;;;;6.80;5.93;;;12.70;99.90;;;;;;5136431;27;20064;-86
2023/05/20 04:22:24;;;;;;;10.60;5.78;;;12.70;99.90;;;;;;5135820;27;20031;-87
2023/05/20 04:24:49;;;;;;;8.13;5.75;;;12.80;99.90;;;;;;5136502;27;20473;-87
2023/05/20 04:27:15;;;;;;;8.88;5.78;;;12.90;99.90;;;;;;5136334;27;20038;-87
2023/05/20 04:29:44;;;;;;;7.38;5.45;;;13.60;99.90;;;;;;5136062;27;20028;-87
2023/05/20 04:32:13;;;;;;;8.60;5.15;;;13.00;99.90;;;;;;5136747;27;20035;-86
2023/05/20 04:34:39;;;;;;;10.77;5.43;;;13.00;99.90;;;;;;5135623;27;20024;-87
2023/05/20 04:37:06;;;;;;;12.32;5.78;;;13.00;99.90;;;;;;5136377;27;20034;-87
2023/05/20 04:39:32;;;;;;;10.35;5.63;;;13.00;99.90;;;;;;5126702;27;20118;-86
2023/05/20 04:41:58;;;;;;;13.57;6.03;;;12.90;99.90;;;;;;5031613;28;20169;-87
2023/05/20 04:44:25;;;;;;;8.43;5.97;;;12.70;99.90;;;;;;5032006;28;20022;-87
2023/05/20 04:46:51;;;;;;;10.65;6.13;;;12.70;99.90;;;;;;5024231;28;20052;-88
2023/05/20 04:49:16;;;;;;;7.63;6.15;;;12.90;99.90;;;;;;5031268;28;20377;-88
2023/05/20 04:51:42;;;;;;;14.75;6.05;;;12.80;99.90;;;;;;5014804;28;20026;-87
2023/05/20 04:54:08;;;;;;;11.65;5.78;;;12.90;99.90;;;;;;5012620;28;20026;-88
2023/05/20 04:56:34;;;;;;;9.30;6.10;;;12.80;99.90;;;;;;5010960;28;20029;-87
2023/05/20 04:59:00;;;;;;;12.15;6.60;;;12.80;99.90;;;;;;5024134;28;20029;-87
2023/05/20 05:01:25;;;;;;;10.73;6.50;;;12.80;99.90;;;;;;5031915;28;20028;-88
2023/05/20 05:03:51;;;;;;;9.80;5.32;;;12.90;99.90;;;;;;5030648;28;20397;-87
2023/05/20 05:06:16;;;;;;;8.48;5.47;;;13.00;99.90;;;;;;5031258;28;20025;-87
2023/05/20 05:08:42;;;;;;;11.80;5.53;;;13.00;99.90;;;;;;5031493;28;20060;-87
2023/05/20 05:11:08;;;;;;;10.90;6.30;;;13.00;99.90;;;;;;5022767;28;20065;-87
2023/05/20 05:13:33;;;;;;;9.02;5.38;;;13.00;99.90;;;;;;5011626;28;20061;-87
2023/05/20 05:16:00;;;;;;;11.70;5.88;;;13.00;99.90;;;;;;5011753;28;20520;-87
2023/05/20 05:18:25;;;;;;;8.80;5.90;;;12.90;99.90;;;;;;5011264;28;20456;-87
2023/05/20 05:20:59;;;;;;;9.98;6.00;;;13.10;99.90;;;;;;5011521;28;20325;-87
2023/05/20 05:23:25;;;;;;;9.18;5.65;;;13.00;99.90;;;;;;5011658;28;20477;-87
2023/05/20 05:25:51;;;;;;;11.18;6.63;;;13.10;99.90;;;;;;5064935;27;20033;-85
2023/05/20 05:28:17;;;;;;;9.27;5.40;;;13.20;99.90;;;;;;5092159;27;20027;-87
2023/05/20 05:30:42;;;;;;;8.00;6.38;;;13.20;99.90;;;;;;5032043;27;20155;-87
2023/05/20 05:33:08;;;;;;;9.95;6.15;;;13.20;99.90;;;;;;5038444;27;20037;-86
2023/05/20 05:35:33;;;;;;;8.02;5.07;;;13.30;99.90;;;;;;5030045;28;20058;-86
2023/05/20 05:37:59;;;;;;;12.70;5.47;;;13.50;99.90;;;;;;5028594;28;20025;-86
2023/05/20 05:40:25;;;;;;;11.73;5.57;;;13.50;99.90;;;;;;5030470;28;20033;-86
2023/05/20 05:42:51;;;;;;;9.98;5.80;;;13.50;99.90;;;;;;5029939;28;20041;-86
2023/05/20 05:45:16;;;;;;;7.60;5.38;;;13.50;99.90;;;;;;5029249;28;20042;-86
2023/05/20 05:47:42;;;;;;;10.63;5.43;;;13.60;99.90;;;;;;5061749;27;20026;-87
2023/05/20 05:50:09;;;;;;;10.52;5.60;;;13.70;99.90;;;;;;5085598;27;20378;-87
2023/05/20 05:52:35;;;;;;;9.60;5.15;;;13.70;99.90;;;;;;5083479;27;20030;-86
2023/05/20 05:55:01;;;;;;;8.20;5.75;;;13.60;99.90;;;;;;5077207;27;20029;-86
2023/05/20 05:57:26;;;;;;;12.88;5.70;;;13.80;99.90;;;;;;5086447;27;20067;-86
2023/05/20 05:59:52;;;;;;;7.05;5.35;;;13.80;99.90;;;;;;5081616;27;20093;-87
2023/05/20 06:02:17;;;;;;;10.50;5.07;;;13.80;99.90;;;;;;5078281;27;20406;-86
2023/05/20 06:04:43;;;;;;;8.77;5.22;;;13.90;99.90;;;;;;5087323;27;20483;-88
2023/05/20 06:07:09;;;;;;;6.28;4.78;;;13.90;99.90;;;;;;5079580;27;20026;-87
2023/05/20 06:09:35;;;;;;;6.28;4.80;;;14.90;99.90;;;;;;5079929;27;20046;-87
2023/05/20 06:12:01;;;;;;;10.68;5.47;;;13.90;99.90;;;;;;5087469;27;20051;-86
2023/05/20 06:14:26;;;;;;;10.40;5.47;;;14.50;99.90;;;;;;5077538;27;20024;-87
2023/05/20 06:16:52;;;;;;;11.00;5.68;;;13.80;99.90;;;;;;5080890;27;20038;-87
2023/05/20 06:19:18;;;;;;;11.52;5.10;;;13.90;99.90;;;;;;5086306;27;20020;-87
2023/05/20 06:21:43;;;;;;;7.50;5.00;;;13.90;99.90;;;;;;5030060;27;20480;-87
2023/05/20 06:24:09;;;;;;;7.45;5.50;;;14.00;99.90;;;;;;5030393;28;20033;-87
2023/05/20 06:26:34;;;;;;;6.88;5.05;;;14.20;99.90;;;;;;5030216;28;20028;-87
2023/05/20 06:29:00;;;;;;;6.65;4.95;;;14.10;99.90;;;;;;5058600;27;20018;-87
2023/05/20 06:31:26;;;;;;;8.23;5.00;;;14.30;99.90;;;;;;5030161;28;20116;-87
2023/05/20 06:33:51;;;;;;;6.15;5.28;;;14.00;99.90;;;;;;5029513;28;20082;-86
2023/05/20 06:36:17;;;;;;;9.10;5.10;;;14.10;99.90;;;;;;5030269;28;20508;-87
2023/05/20 06:38:42;;;;;;;10.32;5.07;;;14.10;99.90;;;;;;5029558;28;20029;-85
2023/05/20 06:41:08;;;;;;;6.97;4.65;;;14.10;99.90;;;;;;5072770;27;20049;-87
2023/05/20 06:43:33;;;;;;;7.97;5.10;;;14.10;99.90;;;;;;5086252;27;20026;-88
2023/05/20 06:45:59;;;;;;;13.60;5.55;;;14.20;99.90;;;;;;5058041;27;20057;-86
2023/05/20 06:48:24;;;;;;;9.20;5.53;;;14.20;99.90;;;;;;5029297;28;20130;-86
2023/05/20 06:50:50;;;;;;;7.32;5.05;;;14.20;99.90;;;;;;5029568;28;20017;-87
2023/05/20 06:53:16;;;;;;;7.10;4.45;;;14.20;99.90;;;;;;5029780;28;20090;-87
2023/05/20 06:55:41;;;;;;;9.15;5.00;;;14.30;99.90;;;;;;5029084;28;20033;-86
2023/05/20 06:58:07;;;;;;;11.82;5.75;;;14.40;99.90;;;;;;5029688;28;20396;-86
2023/05/20 07:00:32;;;;;;;8.93;5.00;;;14.40;99.90;;;;;;5029600;28;20028;-86
2023/05/20 07:02:58;;;;;;;9.93;4.85;;;14.40;99.90;;;;;;5078140;27;20022;-88
2023/05/20 07:05:23;;;;;;;10.95;5.70;;;14.40;99.90;;;;;;5029866;28;20029;-87
2023/05/20 07:07:49;;;;;;;11.10;5.10;;;14.50;99.90;;;;;;5029860;28;20035;-85
2023/05/20 07:10:15;;;;;;;5.30;4.45;;;14.60;99.90;;;;;;5028897;28;20028;-85
2023/05/20 07:12:41;;;;;;;10.20;5.15;;;15.30;99.90;;;;;;5030290;28;20393;-88
2023/05/20 07:15:07;;;;;;;8.82;4.97;;;14.70;99.90;;;;;;5030066;28;20036;-87
2023/05/20 07:17:32;;;;;;;5.75;4.70;;;14.70;99.90;;;;;;5028757;28;20106;-84
2023/05/20 07:19:58;;;;;;;9.15;5.00;;;14.70;99.90;;;;;;5029333;28;20029;-85
2023/05/20 07:22:24;;;;;;;10.45;5.38;;;14.80;99.90;;;;;;5029125;28;20060;-85
2023/05/20 07:24:49;;;;;;;8.52;5.75;;;14.70;99.90;;;;;;5028278;28;20534;-84
2023/05/20 07:27:15;;;;;;;7.40;4.68;;;14.80;99.90;;;;;;5027914;28;20056;-85
2023/05/20 07:29:40;;;;;;;11.45;4.95;;;14.90;99.90;;;;;;5027505;28;20029;-84
2023/05/20 07:32:08;;;;;;;7.68;4.78;;;14.90;99.90;;;;;;5027435;28;20033;-85
2023/05/20 07:34:33;;;;;;;11.60;4.38;;;15.00;99.90;;;;;;5029257;28;20032;-85
2023/05/20 07:37:00;;;;;;;7.70;4.13;;;15.10;99.90;;;;;;5029496;28;20419;-81
2023/05/20 07:39:25;;;;;;;8.82;4.20;;;15.10;99.90;;;;;;5028585;28;20551;-82
2023/05/20 07:41:51;;;;;;;7.15;4.00;;;15.10;99.90;;;;;;5029050;28;20133;-82
2023/05/20 07:44:21;;;;;;;8.55;3.50;;;15.30;99.90;;;;;;5027668;28;20147;-82
2023/05/20 07:46:47;;;;;;;4.40;3.80;;;15.20;99.90;;;;;;5026759;28;20385;-84
2023/05/20 07:49:13;;;;;;;5.65;3.92;;;15.30;99.90;;;;;;5028163;28;20629;-84
2023/05/20 07:51:38;;;;;;;6.88;3.80;;;15.30;99.90;;;;;;5026233;28;20070;-82
2023/05/20 07:54:05;;;;;;;8.70;4.15;;;15.30;99.90;;;;;;5027189;28;20389;-83
2023/05/20 07:56:30;;;;;;;8.80;3.92;;;15.30;99.90;;;;;;5027129;28;20069;-83
2023/05/20 07:58:57;;;;;;;4.47;3.40;;;15.40;99.90;;;;;;5026274;28;20100;-84
2023/05/20 08:01:24;;;;;;;7.40;4.05;;;15.40;99.90;;;;;;5028679;28;20026;-84
2023/05/20 08:03:50;;;;;;;7.65;3.75;;;15.60;99.90;;;;;;5028820;28;20026;-83
2023/05/20 08:06:16;;;;;;;4.75;3.60;;;15.70;99.90;;;;;;5028297;28;20033;-83
2023/05/20 08:08:42;;;;;;;7.78;3.42;;;15.50;99.90;;;;;;5028685;28;20052;-84
2023/05/20 08:11:08;;;;;;;6.13;3.40;;;15.60;99.90;;;;;;5028882;28;20045;-84
2023/05/20 08:13:34;;;;;;;6.32;3.58;;;15.10;99.90;;;;;;5027801;28;20547;-84
2023/05/20 08:16:00;;;;;;;5.13;3.67;;;15.70;99.90;;;;;;5025410;28;20034;-88
2023/05/20 08:18:26;;;;;;;7.85;3.75;;;15.70;99.90;;;;;;5028787;28;20030;-85
2023/05/20 08:20:52;;;;;;;5.75;3.35;;;16.60;99.90;;;;;;5027694;28;20109;-85
2023/05/20 08:23:17;;;;;;;6.10;3.05;;;15.80;99.90;;;;;;5028381;28;20138;-84
2023/05/20 08:25:45;;;;;;;6.30;3.03;;;15.80;99.90;;;;;;5028351;28;20025;-86
2023/05/20 08:28:11;;;;;;;2.90;2.70;;;15.90;99.90;;;;;;5027937;28;20033;-84
2023/05/20 08:30:36;;;;;;;5.47;3.30;;;15.90;99.90;;;;;;5027193;28;20104;-84
2023/05/20 08:33:02;;;;;;;6.85;3.00;;;16.60;99.90;;;;;;5026760;28;20113;-84
2023/05/20 08:35:28;;;;;;;3.88;2.90;;;16.00;99.90;;;;;;5025434;28;20032;-84
2023/05/20 08:37:53;;;;;;;4.43;2.70;;;16.00;99.90;;;;;;5025239;28;20021;-84
2023/05/20 08:40:21;;;;;;;3.88;2.85;;;16.00;99.90;;;;;;5024804;28;20108;-84
2023/05/20 08:42:48;;;;;;;6.60;3.03;;;16.30;99.90;;;;;;5027018;28;20029;-84
2023/05/20 08:45:17;;;;;;;4.18;2.70;;;16.20;99.90;;;;;;5028077;28;20049;-84
2023/05/20 08:47:43;;;;;;;9.02;2.85;;;15.60;99.90;;;;;;5027484;28;20025;-84
2023/05/20 08:50:10;;;;;;;5.28;2.65;;;16.20;99.90;;;;;;5029925;28;20113;-84
2023/05/20 08:52:41;;;;;;;5.20;2.65;;;16.30;99.90;;;;;;5031057;28;20128;-84
2023/05/20 08:55:08;;;;;;;;;;;16.80;99.90;;;;;;5031213;28;20322;-84
2023/05/20 08:57:35;;;;;;;4.28;2.38;;;16.30;99.90;;;;;;5029294;28;19913;-83
2023/05/20 09:00:08;;;;;;;3.17;2.42;;;16.40;99.90;;;;;;5031267;28;20026;-84
2023/05/20 09:02:37;;;;;;;4.05;2.58;;;16.40;99.90;;;;;;5024845;28;20389;-84
2023/05/20 09:05:03;;;;;;;5.47;2.42;;;17.20;99.90;;;;;;5023203;28;20030;-84
2023/05/20 09:07:29;;;;;;;4.28;3.17;;;16.50;99.90;;;;;;5027969;28;20477;-87
2023/05/20 09:09:56;;;;;;;5.75;2.67;;;16.50;99.90;;;;;;5026756;28;20608;-84
2023/05/20 09:12:22;;;;;;;11.75;2.20;;;16.60;99.90;;;;;;5027503;28;20042;-84
2023/05/20 09:14:48;;;;;;;13.15;1.90;;;16.60;99.90;;;;;;5026833;28;20381;-84
2023/05/20 09:17:14;;;;;;;4.18;1.65;;;16.90;99.90;;;;;;5026671;28;20499;-84
2023/05/20 09:19:40;;;;;;;3.67;2.00;;;16.70;99.90;;;;;;5027591;28;20037;-84
2023/05/20 09:22:06;;;;;;;6.65;2.28;;;17.00;99.90;;;;;;5027767;28;20037;-84
2023/05/20 09:24:31;;;;;;;3.88;2.38;;;16.70;99.90;;;;;;5026431;28;20062;-85
2023/05/20 09:26:57;;;;;;;3.55;2.15;;;17.50;99.90;;;;;;5027678;28;20030;-85
2023/05/20 09:29:23;;;;;;;5.40;2.05;;;17.00;99.90;;;;;;5027704;28;20469;-86
2023/05/20 09:31:49;;;;;;;1.77;1.63;;;17.30;99.90;;;;;;5026135;28;20029;-86
2023/05/20 09:34:15;;;;;;;7.28;2.63;;;16.70;99.90;;;;;;5029170;28;20026;-86
2023/05/20 09:36:43;;;;;;;2.72;2.05;;;16.70;99.90;;;;;;5029067;28;20587;-86
2023/05/20 09:39:15;;;;;;;5.03;2.28;;;16.90;99.90;;;;;;5029314;28;20063;-86
2023/05/20 09:41:55;;;;;;;3.75;2.20;;;16.70;99.90;;;;;;5028696;28;20025;-87
2023/05/20 09:44:21;;;;;;;2.85;1.90;;;17.20;99.90;;;;;;5027468;28;20104;-86
2023/05/20 09:46:49;;;;;;;3.30;1.73;;;16.80;99.90;;;;;;5028580;28;20086;-86
2023/05/20 09:49:15;;;;;;;3.63;2.28;;;16.80;99.90;;;;;;5029286;28;20026;-87
2023/05/20 09:51:42;;;;;;;4.65;1.83;;;16.80;99.90;;;;;;5026618;28;20032;-84
2023/05/20 09:54:10;;;;;;;3.05;2.17;;;16.90;99.90;;;;;;5028978;28;20030;-86
2023/05/20 09:56:36;;;;;;;5.70;1.80;;;17.00;99.90;;;;;;5028593;28;20026;-86
2023/05/20 09:59:04;;;;;;;3.60;2.13;;;18.00;99.90;;;;;;5027281;28;20042;-85
2023/05/20 10:01:29;;;;;;;4.15;1.80;;;17.10;99.90;;;;;;5027598;28;20074;-83
2023/05/20 10:03:55;;;;;;;12.50;2.10;;;17.20;99.90;;;;;;5027650;28;20021;-86
2023/05/20 10:06:37;;;;;;;6.22;1.67;;;18.00;99.90;;;;;;5028084;28;20037;-88
2023/05/20 10:09:41;;;;;;;3.72;1.65;;;17.30;99.90;;;;;;5029492;28;20412;-89
2023/05/20 10:12:15;;;;;;;2.55;1.60;;;17.30;99.90;;;;;;5025766;28;20041;-86
2023/05/20 10:15:22;;;;;;;6.30;1.50;;;17.40;99.90;;;;;;5027762;28;20489;-88
2023/05/20 10:18:25;;;;;;;10.48;2.20;;;17.40;99.90;;;;;;5062877;27;20027;-83
2023/05/20 10:20:51;;;;;;;3.05;2.05;;;17.50;99.90;;;;;;5033500;27;20042;-84
2023/05/20 10:23:26;;;;;;;4.22;2.00;;;17.50;99.90;;;;;;5026177;28;20033;-83
2023/05/20 10:25:56;;;;;;;5.13;1.88;;;17.60;99.90;;;;;;5024756;28;20030;-84
2023/05/20 10:28:35;;;;;;;1.85;1.65;;;16.90;99.90;;;;;;5027295;28;20018;-85
2023/05/20 10:31:01;;;;;;;3.00;1.35;;;17.50;99.90;;;;;;5042285;28;20489;-85
2023/05/20 10:33:27;;;;;;;9.43;1.95;;;17.60;99.90;;;;;;5026695;28;20122;-84
2023/05/20 10:35:57;;;;;;;4.05;2.00;;;17.70;99.90;;;;;;5026938;28;20487;-85
2023/05/20 10:38:23;;;;;;;2.30;1.77;;;17.70;99.90;;;;;;5021864;28;20456;-85
2023/05/20 10:40:49;;;;;;;7.38;1.80;;;17.80;99.90;;;;;;5025629;28;20067;-87
2023/05/20 10:43:27;;;;;;;4.30;1.65;;;17.90;99.90;;;;;;5026470;28;20065;-85
2023/05/20 10:45:54;;;;;;;2.28;1.80;;;17.90;99.90;;;;;;5025379;28;20053;-85
2023/05/20 10:48:23;;;;;;;5.13;1.63;;;17.90;99.90;;;;;;5025679;28;20032;-84
2023/05/20 10:50:49;;;;;;;3.85;1.90;;;18.00;99.90;;;;;;5026989;28;20064;-86
2023/05/20 10:53:15;;;;;;;3.08;1.95;;;18.20;98.80;;;;;;5028083;28;20554;-85
2023/05/20 10:55:46;;;;;;;5.35;2.30;;;18.30;99.00;;;;;;5026819;28;20025;-85
2023/05/20 10:58:13;;;;;;;3.85;1.90;;;18.30;99.20;;;;;;5026605;28;20037;-84
2023/05/20 11:00:39;;;;;;;2.45;2.00;;;18.30;99.90;;;;;;5027359;28;20022;-86
2023/05/20 11:03:06;;;;;;;2.42;2.20;;;18.40;99.30;;;;;;5033269;27;20040;-86
2023/05/20 11:05:32;;;;;;;6.32;2.00;;;18.40;99.90;;;;;;5044051;27;20067;-86
2023/05/20 11:08:05;;;;;;;3.78;2.25;;;18.50;99.90;;;;;;5078376;27;20474;-86
2023/05/20 11:10:32;;;;;;;2.30;1.88;;;18.40;99.90;;;;;;5087807;27;20141;-87
2023/05/20 11:12:59;;;;;;;8.77;2.10;;;18.60;99.80;;;;;;4999463;22;20493;-87
2023/05/20 11:15:25;;;;;;;3.60;2.25;;;18.30;99.90;;;;;;4986631;28;20461;-85
2023/05/20 11:17:52;;;;;;;2.85;1.90;;;18.40;99.90;;;;;;4981120;28;20088;-89
2023/05/20 11:20:18;;;;;;;5.40;2.00;;;17.90;99.30;;;;;;4972585;28;20034;-86
2023/05/20 11:22:44;;;;;;;2.42;1.98;;;18.50;99.90;;;;;;4969062;28;20030;-87
2023/05/20 11:25:10;;;;;;;7.03;2.03;;;18.20;99.00;;;;;;4975046;28;20058;-89
2023/05/20 11:27:38;;;;;;;6.18;2.08;;;18.30;99.70;;;;;;4970408;28;20035;-88
2023/05/20 11:30:05;;;;;;;2.65;2.10;;;18.00;99.60;;;;;;4985575;28;20019;-86
2023/05/20 11:32:31;;;;;;;3.17;2.10;;;18.50;98.90;;;;;;4969842;28;20047;-87
2023/05/20 11:34:56;;;;;;;7.68;2.28;;;18.60;99.10;;;;;;4983655;28;20038;-86
2023/05/20 11:37:23;;;;;;;2.45;1.90;;;18.70;98.80;;;;;;4978112;28;20034;-86
2023/05/20 11:40:06;;;;;;;6.05;2.05;;;18.70;99.10;;;;;;4983311;28;20362;-86
2023/05/20 11:42:31;;;;;;;5.82;2.17;;;18.60;99.60;;;;;;4987253;28;20023;-87
2023/05/20 11:44:59;;;;;;;10.57;2.08;;;18.70;99.90;;;;;;4983964;28;20049;-87
2023/05/20 11:47:28;;;;;;;2.00;1.40;;;18.70;99.90;;;;;;4986542;28;20030;-87
2023/05/20 11:49:55;;;;;;;3.08;2.15;;;18.70;98.70;;;;;;4983110;28;20041;-88
2023/05/20 11:52:21;;;;;;;1.98;1.77;;;18.70;99.00;;;;;;4982354;28;20497;-87
2023/05/20 11:54:52;;;;;;;3.83;2.03;;;18.20;99.70;;;;;;4975907;28;20031;-89
2023/05/20 11:57:19;;;;;;;9.00;2.22;;;18.60;99.90;;;;;;4974858;28;20087;-89
2023/05/20 11:59:45;;;;;;;3.85;1.92;;;18.60;99.90;;;;;;4988734;28;20359;-87
2023/05/20 12:02:11;;;;;;;3.42;1.85;;;18.70;99.90;;;;;;4989732;28;20041;-86
2023/05/20 12:04:36;;;;;;;2.80;1.88;;;18.50;99.90;;;;;;4992640;28;20485;-87
2023/05/20 12:07:02;;;;;;;3.78;1.83;;;18.50;99.90;;;;;;4992906;28;20492;-85
2023/05/20 12:09:28;;;;;;;7.93;2.00;;;18.60;99.90;;;;;;4988988;28;20164;-88
2023/05/20 12:11:55;;;;;;;9.75;2.58;;;18.70;99.90;;;;;;4971538;28;20117;-86
2023/05/20 12:14:21;;;;;;;10.80;1.75;;;18.70;99.90;;;;;;4969085;28;20035;-86
2023/05/20 12:16:46;;;;;;;3.97;2.05;;;18.90;98.80;;;;;;4970635;28;20437;-86
2023/05/20 12:19:12;;;;;;;2.80;1.83;;;18.90;98.60;;;;;;4970985;28;20027;-86
2023/05/20 12:21:37;;;;;;;2.10;1.90;;;18.90;98.70;;;;;;4970988;28;20027;-86
2023/05/20 12:24:05;;;;;;;3.95;1.80;;;19.00;99.60;;;;;;4971518;28;20323;-86
2023/05/20 12:26:32;;;;;;;2.47;1.67;;;19.00;99.50;;;;;;4971071;28;20023;-86
2023/05/20 12:28:57;;;;;;;6.25;2.13;;;18.90;99.50;;;;;;4972312;28;20064;-86
2023/05/20 12:31:24;;;;;;;6.65;2.53;;;19.30;99.20;;;;;;4973471;28;20109;-86
2023/05/20 12:33:49;;;;;;;2.72;2.05;;;19.20;99.30;;;;;;4971623;28;20117;-86
2023/05/20 12:36:15;;;;;;;3.53;1.90;;;19.00;99.60;;;;;;4971303;28;20109;-86
2023/05/20 12:38:40;;;;;;;5.63;2.28;;;19.00;99.40;;;;;;4970037;28;20529;-87
2023/05/20 12:41:06;;;;;;;3.60;1.80;;;19.00;98.90;;;;;;4970521;28;20541;-86